Time;durP1;ratioP1;P1;durP2;ratioP2;P2;SDS_P1;SDS_P2;PMS_P1;PMS_P2;Temp;Humidity;BMP_temperature;BMP_pressure;BME280_temperature;BME280_humidity;BME280_pressure;Samples;Min_cycle;Max_cycle;Signal;HPM_P1;HPM_P2
2023/11/17 00:01:45;;;;;;;;;;;;;;;;;;5060164;28;19923;-73
2023/11/17 00:04:11;;;;;;;;;;;;;;;;;;5074071;28;19916;-72
2023/11/17 00:06:37;;;;;;;;;;;;;;;;;;5073528;28;20498;-72
2023/11/17 00:09:05;;;;;;;;;;;;;;;;;;5071852;28;19921;-72
2023/11/17 00:11:31;;;;;;;;;;;;;;;;;;5045963;28;20015;-72
2023/11/17 00:13:57;;;;;;;;;;;;;;;;;;5059481;28;19923;-72
2023/11/17 00:16:23;;;;;;;;;;;;;;;;;;5044521;28;19924;-72
2023/11/17 00:18:48;;;;;;;;;;;;;;;;;;5044407;28;19927;-72
2023/11/17 00:21:15;;;;;;;;;;;;;;;;;;5072756;28;20342;-72
2023/11/17 00:23:40;;;;;;;;;;;;;;;;;;5072519;28;19926;-72
2023/11/17 00:26:05;;;;;;;;;;;;;;;;;;5071548;28;19920;-72
2023/11/17 00:28:42;;;;;;;;;;;;;;;;;;5064944;28;19954;-72
2023/11/17 00:31:07;;;;;;;;;;;;;;;;;;5040931;28;19927;-72
2023/11/17 00:33:33;;;;;;;;;;;;;;;;;;5060131;28;19920;-72
2023/11/17 00:35:58;;;;;;;;;;;;;;;;;;5056851;28;19935;-73
2023/11/17 00:38:24;;;;;;;;;;;;;;;;;;5061214;28;20635;-71
2023/11/17 00:40:51;;;;;;;;;;;;;;;;;;5053951;28;20406;-71
2023/11/17 00:43:18;;;;;;;;;;;;;;;;;;5058658;28;19916;-71
2023/11/17 00:45:44;;;;;;;;;;;;;;;;;;5058594;28;20541;-70
2023/11/17 00:48:10;;;;;;;;;;;;;;;;;;5059389;28;20372;-71
2023/11/17 00:50:35;;;;;;;;;;;;;;;;;;5054777;28;19970;-71
2023/11/17 00:53:05;;;;;;;;;;;;;;;;;;5055848;28;19927;-70
2023/11/17 00:55:30;;;;;;;;;;;;;;;;;;5055370;28;19928;-70
2023/11/17 00:57:56;;;;;;;;;;;;;;;;;;5053713;28;20308;-72
2023/11/17 01:00:21;;;;;;;;;;;;;;;;;;5043074;28;20034;-71
2023/11/17 01:02:47;;;;;;;;;;;;;;;;;;5058577;28;19920;-70
2023/11/17 01:05:12;;;;;;;;;;;;;;;;;;5070508;28;19927;-71
2023/11/17 01:07:38;;;;;;;;;;;;;;;;;;5055785;28;19971;-70
2023/11/17 01:10:05;;;;;;;;;;;;;;;;;;5071297;28;20581;-70
2023/11/17 01:12:30;;;;;;;;;;;;;;;;;;5045155;28;19915;-70
2023/11/17 01:14:55;;;;;;;;;;;;;;;;;;5055071;28;20049;-70
2023/11/17 01:17:22;;;;;;;;;;;;;;;;;;5070208;28;19966;-70
2023/11/17 01:19:47;;;;;;;;;;;;;;;;;;5068226;28;19920;-70
2023/11/17 01:22:13;;;;;;;;;;;;;;;;;;5039503;28;19923;-71
2023/11/17 01:24:41;;;;;;;;;;;;;;;;;;5041671;28;20109;-71
2023/11/17 01:27:07;;;;;;;;;;;;;;;;;;5054209;28;20501;-70
2023/11/17 01:29:32;;;;;;;;;;;;;;;;;;5042018;28;19921;-70
2023/11/17 01:31:57;;;;;;;;;;;;;;;;;;5059471;28;20360;-70
2023/11/17 01:34:23;;;;;;;;;;;;;;;;;;5039237;28;20366;-70
2023/11/17 01:36:48;;;;;;;;;;;;;;;;;;5043372;28;19962;-70
2023/11/17 01:39:14;;;;;;;;;;;;;;;;;;5041130;28;20304;-69
2023/11/17 01:41:40;;;;;;;;;;;;;;;;;;5058394;28;20046;-69
2023/11/17 01:44:06;;;;;;;;;;;;;;;;;;5057145;28;19927;-70
2023/11/17 01:46:31;;;;;;;;;;;;;;;;;;5057743;28;19918;-70
2023/11/17 01:48:57;;;;;;;;;;;;;;;;;;5071879;28;19916;-69
2023/11/17 01:51:23;;;;;;;;;;;;;;;;;;5052295;28;20737;-70
2023/11/17 01:53:48;;;;;;;;;;;;;;;;;;5030372;28;20371;-69
2023/11/17 01:56:14;;;;;;;;;;;;;;;;;;5046275;28;19920;-69
2023/11/17 01:58:39;;;;;;;;;;;;;;;;;;5045034;28;19920;-69
2023/11/17 02:01:05;;;;;;;;;;;;;;;;;;5051064;28;19961;-69
2023/11/17 02:03:30;;;;;;;;;;;;;;;;;;5054976;28;20054;-69
2023/11/17 02:05:55;;;;;;;;;;;;;;;;;;5050996;28;19937;-69
2023/11/17 02:08:21;;;;;;;;;;;;;;;;;;5064941;28;19930;-69
2023/11/17 02:10:50;;;;;;;;;;;;;;;;;;5057521;28;19916;-69
2023/11/17 02:13:24;;;;;;;;;;;;;;;;;;5041768;28;19928;-69
2023/11/17 02:15:50;;;;;;;;;;;;;;;;;;5045170;28;19924;-69
2023/11/17 02:18:16;;;;;;;;;;;;;;;;;;5043203;28;19920;-69
2023/11/17 02:20:41;;;;;;;;;;;;;;;;;;5062568;28;19923;-69
2023/11/17 02:23:10;;;;;;;;;;;;;;;;;;5059009;28;19944;-69
2023/11/17 02:25:44;;;;;;;;;;;;;;;;;;5063528;28;20037;-69
2023/11/17 02:28:12;;;;;;;;;;;;;;;;;;5073733;28;19979;-69
2023/11/17 02:30:39;;;;;;;;;;;;;;;;;;5074991;28;20011;-69
2023/11/17 02:33:07;;;;;;;;;;;;;;;;;;5072744;28;19931;-69
2023/11/17 02:35:33;;;;;;;;;;;;;;;;;;5043895;28;19924;-69
2023/11/17 02:37:58;;;;;;;;;;;;;;;;;;5072778;28;20033;-69
2023/11/17 02:40:24;;;;;;;;;;;;;;;;;;5056668;28;20047;-69
2023/11/17 02:42:51;;;;;;;;;;;;;;;;;;5046078;28;20164;-69
2023/11/17 02:45:19;;;;;;;;;;;;;;;;;;5055703;28;20053;-69
2023/11/17 02:47:46;;;;;;;;;;;;;;;;;;5068621;28;19928;-69
2023/11/17 02:50:18;;;;;;;;;;;;;;;;;;5044566;28;19912;-69
2023/11/17 02:53:00;;;;;;;;;;;;;;;;;;5057969;28;19949;-69
2023/11/17 02:55:27;;;;;;;;;;;;;;;;;;5062173;28;19924;-69
2023/11/17 02:57:54;;;;;;;;;;;;;;;;;;5061004;28;19975;-70
2023/11/17 03:00:22;;;;;;;;;;;;;;;;;;5043386;28;20032;-69
2023/11/17 03:02:47;;;;;;;;;;;;;;;;;;5042075;28;20326;-69
2023/11/17 03:05:13;;;;;;;;;;;;;;;;;;5058340;28;19920;-69
2023/11/17 03:07:42;;;;;;;;;;;;;;;;;;5041301;28;19920;-69
2023/11/17 03:10:07;;;;;;;;;;;;;;;;;;5061660;28;20004;-69
2023/11/17 03:12:33;;;;;;;;;;;;;;;;;;5071913;28;20079;-69
2023/11/17 03:14:58;;;;;;;;;;;;;;;;;;5060970;28;19920;-69
2023/11/17 03:17:24;;;;;;;;;;;;;;;;;;5071381;28;19962;-70
2023/11/17 03:19:49;;;;;;;;;;;;;;;;;;5073572;28;20356;-69
2023/11/17 03:22:15;;;;;;;;;;;;;;;;;;5054703;28;20110;-70
2023/11/17 03:24:43;;;;;;;;;;;;;;;;;;5044568;28;19916;-70
2023/11/17 03:27:11;;;;;;;;;;;;;;;;;;5041892;28;19913;-70
2023/11/17 03:29:36;;;;;;;;;;;;;;;;;;5061484;28;21391;-70
2023/11/17 03:32:01;;;;;;;;;;;;;;;;;;5055512;28;19927;-69
2023/11/17 03:34:30;;;;;;;;;;;;;;;;;;5043559;28;20135;-70
2023/11/17 03:37:00;;;;;;;;;;;;;;;;;;5070542;28;20031;-70
2023/11/17 03:39:25;;;;;;;;;;;;;;;;;;5054651;28;20040;-70
2023/11/17 03:41:52;;;;;;;;;;;;;;;;;;5057640;28;20023;-70
2023/11/17 03:44:17;;;;;;;;;;;;;;;;;;5059096;28;19920;-70
2023/11/17 03:46:43;;;;;;;;;;;;;;;;;;5053262;28;20278;-70
2023/11/17 03:49:11;;;;;;;;;;;;;;;;;;5056934;28;20015;-70
2023/11/17 03:51:37;;;;;;;;;;;;;;;;;;5057726;28;20384;-70
2023/11/17 03:54:05;;;;;;;;;;;;;;;;;;5040121;28;19974;-70
2023/11/17 03:56:30;;;;;;;;;;;;;;;;;;5070751;28;19920;-70
2023/11/17 03:58:56;;;;;;;;;;;;;;;;;;5057692;28;19947;-70
2023/11/17 04:01:21;;;;;;;;;;;;;;;;;;5060291;28;19916;-70
2023/11/17 04:03:47;;;;;;;;;;;;;;;;;;5072805;28;19917;-69
2023/11/17 04:06:12;;;;;;;;;;;;;;;;;;5059107;28;19931;-70
2023/11/17 04:08:38;;;;;;;;;;;;;;;;;;5068962;28;19923;-70
2023/11/17 04:11:03;;;;;;;;;;;;;;;;;;5070892;28;20019;-69
2023/11/17 04:13:31;;;;;;;;;;;;;;;;;;5041054;28;19920;-69
2023/11/17 04:15:56;;;;;;;;;;;;;;;;;;5044007;28;19920;-69
2023/11/17 04:18:22;;;;;;;;;;;;;;;;;;5071072;28;19920;-70
2023/11/17 04:20:48;;;;;;;;;;;;;;;;;;5072381;28;20326;-70
2023/11/17 04:23:16;;;;;;;;;;;;;;;;;;5070328;28;19920;-69
2023/11/17 04:25:41;;;;;;;;;;;;;;;;;;5041170;28;19969;-69
2023/11/17 04:28:06;;;;;;;;;;;;;;;;;;5070011;28;20164;-69
2023/11/17 04:30:32;;;;;;;;;;;;;;;;;;5043138;28;20358;-69
2023/11/17 04:32:57;;;;;;;;;;;;;;;;;;5057347;28;19963;-69
2023/11/17 04:35:23;;;;;;;;;;;;;;;;;;5056022;28;20348;-69
2023/11/17 04:37:48;;;;;;;;;;;;;;;;;;5056699;28;19920;-69
2023/11/17 04:40:16;;;;;;;;;;;;;;;;;;5059265;28;19951;-69
2023/11/17 04:42:42;;;;;;;;;;;;;;;;;;5041921;28;20335;-69
2023/11/17 04:45:07;;;;;;;;;;;;;;;;;;5056713;28;20504;-69
2023/11/17 04:47:33;;;;;;;;;;;;;;;;;;5039746;28;20007;-69
2023/11/17 04:49:58;;;;;;;;;;;;;;;;;;5055505;28;19916;-69
2023/11/17 04:52:25;;;;;;;;;;;;;;;;;;5052617;28;19924;-69
2023/11/17 04:54:50;;;;;;;;;;;;;;;;;;5072866;28;20375;-69
2023/11/17 04:57:17;;;;;;;;;;;;;;;;;;5077882;28;20022;-69
2023/11/17 04:59:42;;;;;;;;;;;;;;;;;;5074878;27;20367;-69
2023/11/17 05:02:09;;;;;;;;;;;;;;;;;;5067384;27;20358;-69
2023/11/17 05:04:34;;;;;;;;;;;;;;;;;;5068994;27;20429;-69
2023/11/17 05:06:59;;;;;;;;;;;;;;;;;;5093021;27;19916;-69
2023/11/17 05:09:25;;;;;;;;;;;;;;;;;;5073368;27;20501;-69
2023/11/17 05:11:51;;;;;;;;;;;;;;;;;;5076286;28;19920;-69
2023/11/17 05:14:16;;;;;;;;;;;;;;;;;;5074769;27;19916;-69
2023/11/17 05:16:43;;;;;;;;;;;;;;;;;;5061376;27;19923;-69
2023/11/17 05:19:10;;;;;;;;;;;;;;;;;;5058385;27;20025;-69
2023/11/17 05:21:37;;;;;;;;;;;;;;;;;;5077751;28;19923;-69
2023/11/17 05:24:03;;;;;;;;;;;;;;;;;;5064313;27;20006;-69
2023/11/17 05:26:28;;;;;;;;;;;;;;;;;;5077255;28;19915;-68
2023/11/17 05:28:53;;;;;;;;;;;;;;;;;;5064941;28;19912;-69
2023/11/17 05:31:20;;;;;;;;;;;;;;;;;;5079343;28;19916;-68
2023/11/17 05:33:45;;;;;;;;;;;;;;;;;;5076327;28;20452;-69
2023/11/17 05:36:11;;;;;;;;;;;;;;;;;;5060343;28;19923;-68
2023/11/17 05:38:39;;;;;;;;;;;;;;;;;;5093825;27;20012;-68
2023/11/17 05:41:05;;;;;;;;;;;;;;;;;;5059902;27;20460;-69
2023/11/17 05:43:30;;;;;;;;;;;;;;;;;;5085307;27;20039;-68
2023/11/17 05:45:59;;;;;;;;;;;;;;;;;;5064956;28;19919;-69
2023/11/17 05:48:25;;;;;;;;;;;;;;;;;;5058667;28;19919;-71
2023/11/17 05:50:50;;;;;;;;;;;;;;;;;;5068427;28;20003;-68
2023/11/17 05:53:16;;;;;;;;;;;;;;;;;;5060004;28;20019;-69
2023/11/17 05:55:44;;;;;;;;;;;;;;;;;;5096070;28;19944;-69
2023/11/17 05:58:09;;;;;;;;;;;;;;;;;;5075824;28;19915;-69
2023/11/17 06:00:35;;;;;;;;;;;;;;;;;;5061163;28;20020;-68
2023/11/17 06:03:00;;;;;;;;;;;;;;;;;;5063237;28;19919;-69
2023/11/17 06:05:26;;;;;;;;;;;;;;;;;;5060506;28;19912;-69
2023/11/17 06:07:51;;;;;;;;;;;;;;;;;;5077386;28;20821;-69
2023/11/17 06:10:17;;;;;;;;;;;;;;;;;;5077875;28;19919;-69
2023/11/17 06:12:42;;;;;;;;;;;;;;;;;;5059085;28;20010;-69
2023/11/17 06:15:07;;;;;;;;;;;;;;;;;;5079244;28;19942;-69
2023/11/17 06:17:35;;;;;;;;;;;;;;;;;;5093408;28;19926;-69
2023/11/17 06:20:00;;;;;;;;;;;;;;;;;;5062451;28;19915;-69
2023/11/17 06:22:26;;;;;;;;;;;;;;;;;;5089832;28;19927;-69
2023/11/17 06:24:52;;;;;;;;;;;;;;;;;;5096958;28;19915;-69
2023/11/17 06:27:17;;;;;;;;;;;;;;;;;;5074469;28;19920;-69
2023/11/17 06:29:42;;;;;;;;;;;;;;;;;;5094563;28;19965;-69
2023/11/17 06:32:08;;;;;;;;;;;;;;;;;;5078847;28;19915;-69
2023/11/17 06:34:36;;;;;;;;;;;;;;;;;;5082475;28;19981;-70
2023/11/17 06:37:01;;;;;;;;;;;;;;;;;;5072623;28;20000;-69
2023/11/17 06:39:29;;;;;;;;;;;;;;;;;;5092216;28;19965;-69
2023/11/17 06:41:54;;;;;;;;;;;;;;;;;;5074710;28;19915;-69
2023/11/17 06:44:20;;;;;;;;;;;;;;;;;;5062473;28;19926;-69
2023/11/17 06:46:45;;;;;;;;;;;;;;;;;;5073973;28;19966;-69
2023/11/17 06:49:12;;;;;;;;;;;;;;;;;;5061872;28;19916;-69
2023/11/17 06:51:40;;;;;;;;;;;;;;;;;;5075527;28;19918;-69
2023/11/17 06:54:10;;;;;;;;;;;;;;;;;;5064999;28;19924;-69
2023/11/17 06:56:35;;;;;;;;;;;;;;;;;;5054866;28;19924;-69
2023/11/17 06:59:01;;;;;;;;;;;;;;;;;;5029782;28;19939;-69
2023/11/17 07:01:26;;;;;;;;;;;;;;;;;;5070806;28;19912;-69
2023/11/17 07:03:52;;;;;;;;;;;;;;;;;;5059010;28;20552;-69
2023/11/17 07:06:19;;;;;;;;;;;;;;;;;;5040706;28;19932;-69
2023/11/17 07:08:45;;;;;;;;;;;;;;;;;;5054999;28;19920;-69
2023/11/17 07:11:10;;;;;;;;;;;;;;;;;;5071959;28;20646;-69
2023/11/17 07:13:36;;;;;;;;;;;;;;;;;;5058878;28;20274;-70
2023/11/17 07:16:06;;;;;;;;;;;;;;;;;;5056716;28;20309;-70
2023/11/17 07:18:32;;;;;;;;;;;;;;;;;;5058044;28;20024;-69
2023/11/17 07:20:59;;;;;;;;;;;;;;;;;;5059894;28;19923;-68
2023/11/17 07:23:25;;;;;;;;;;;;;;;;;;5047504;28;19917;-69
2023/11/17 07:25:50;;;;;;;;;;;;;;;;;;5061056;28;19966;-68
2023/11/17 07:28:16;;;;;;;;;;;;;;;;;;5072434;28;19948;-68
2023/11/17 07:30:42;;;;;;;;;;;;;;;;;;5041760;28;19952;-68
2023/11/17 07:33:09;;;;;;;;;;;;;;;;;;5060342;28;19916;-68
2023/11/17 07:35:35;;;;;;;;;;;;;;;;;;5056038;28;19974;-68
2023/11/17 07:38:02;;;;;;;;;;;;;;;;;;5057005;28;19973;-68
2023/11/17 07:40:27;;;;;;;;;;;;;;;;;;5058329;28;19917;-68
2023/11/17 07:42:52;;;;;;;;;;;;;;;;;;5056905;28;19927;-70
2023/11/17 07:45:18;;;;;;;;;;;;;;;;;;5072610;28;19940;-68
2023/11/17 07:47:43;;;;;;;;;;;;;;;;;;5054009;28;19921;-68
2023/11/17 07:50:13;;;;;;;;;;;;;;;;;;5054855;28;19955;-68
2023/11/17 07:52:42;;;;;;;;;;;;;;;;;;5070336;28;20824;-68
2023/11/17 07:55:08;;;;;;;;;;;;;;;;;;5061389;28;20030;-68
2023/11/17 07:57:35;;;;;;;;;;;;;;;;;;5069982;28;19920;-68
2023/11/17 08:00:00;;;;;;;;;;;;;;;;;;5058045;28;19915;-68
2023/11/17 08:02:25;;;;;;;;;;;;;;;;;;5044277;28;19938;-68
2023/11/17 08:04:51;;;;;;;;;;;;;;;;;;5057714;28;20264;-68
2023/11/17 08:07:17;;;;;;;;;;;;;;;;;;5056113;28;19931;-68
2023/11/17 08:09:44;;;;;;;;;;;;;;;;;;5072730;28;20717;-69
2023/11/17 08:12:11;;;;;;;;;;;;;;;;;;5056256;28;20371;-69
2023/11/17 08:14:36;;;;;;;;;;;;;;;;;;5056645;28;19927;-68
2023/11/17 08:17:04;;;;;;;;;;;;;;;;;;5057591;28;19967;-68
2023/11/17 08:19:30;;;;;;;;;;;;;;;;;;5071437;28;19920;-68
2023/11/17 08:21:55;;;;;;;;;;;;;;;;;;5072138;28;19916;-68
2023/11/17 08:24:22;;;;;;;;;;;;;;;;;;5042948;28;19920;-69
2023/11/17 08:26:50;;;;;;;;;;;;;;;;;;5060743;28;19967;-68
2023/11/17 08:29:15;;;;;;;;;;;;;;;;;;5043229;28;19942;-68
2023/11/17 08:31:41;;;;;;;;;;;;;;;;;;5047251;28;19921;-68
2023/11/17 08:34:07;;;;;;;;;;;;;;;;;;5071420;28;19961;-68
2023/11/17 08:36:32;;;;;;;;;;;;;;;;;;5056422;28;20275;-68
2023/11/17 08:38:58;;;;;;;;;;;;;;;;;;5070603;28;20200;-68
2023/11/17 08:41:24;;;;;;;;;;;;;;;;;;5071039;28;19920;-69
2023/11/17 08:43:51;;;;;;;;;;;;;;;;;;5057676;28;21337;-69
2023/11/17 08:46:17;;;;;;;;;;;;;;;;;;5057929;28;20018;-69
2023/11/17 08:48:43;;;;;;;;;;;;;;;;;;5055943;28;20336;-69
2023/11/17 08:51:08;;;;;;;;;;;;;;;;;;5070137;28;20604;-69
2023/11/17 08:53:34;;;;;;;;;;;;;;;;;;5060730;27;19927;-69
2023/11/17 08:56:00;;;;;;;;;;;;;;;;;;5062543;27;19916;-69
2023/11/17 08:58:25;;;;;;;;;;;;;;;;;;5073857;27;20034;-68
2023/11/17 09:00:51;;;;;;;;;;;;;;;;;;5060347;27;20483;-68
2023/11/17 09:03:16;;;;;;;;;;;;;;;;;;5094278;27;19923;-68
2023/11/17 09:05:42;;;;;;;;;;;;;;;;;;5079115;28;19922;-69
2023/11/17 09:08:08;;;;;;;;;;;;;;;;;;5062999;27;19919;-70
2023/11/17 09:10:33;;;;;;;;;;;;;;;;;;5068323;27;19919;-70
2023/11/17 09:12:58;;;;;;;;;;;;;;;;;;5077398;28;19931;-68
2023/11/17 09:15:23;;;;;;;;;;;;;;;;;;5078014;27;20390;-68
2023/11/17 09:17:51;;;;;;;;;;;;;;;;;;5060796;27;20442;-70
2023/11/17 09:20:17;;;;;;;;;;;;;;;;;;5080704;28;19920;-70
2023/11/17 09:22:42;;;;;;;;;;;;;;;;;;5059231;27;19923;-71
2023/11/17 09:25:14;;;;;;;;;;;;;;;;;;5079290;28;19912;-70
2023/11/17 09:27:40;;;;;;;;;;;;;;;;;;5075031;28;19961;-69
2023/11/17 09:30:06;;;;;;;;;;;;;;;;;;5078325;28;19923;-70
2023/11/17 09:32:31;;;;;;;;;;;;;;;;;;5079293;28;20282;-68
2023/11/17 09:34:57;;;;;;;;;;;;;;;;;;5094487;27;20630;-69
2023/11/17 09:37:23;;;;;;;;;;;;;;;;;;5061142;27;20418;-71
2023/11/17 09:39:48;;;;;;;;;;;;;;;;;;5075125;27;19915;-70
2023/11/17 09:42:13;;;;;;;;;;;;;;;;;;5062397;27;20317;-70
2023/11/17 09:44:39;;;;;;;;;;;;;;;;;;5094905;27;19966;-71
2023/11/17 09:47:04;;;;;;;;;;;;;;;;;;5049602;28;19926;-71
2023/11/17 09:49:29;;;;;;;;;;;;;;;;;;5093822;27;19915;-70
2023/11/17 09:51:58;;;;;;;;;;;;;;;;;;5077020;28;19928;-71
2023/11/17 09:54:23;;;;;;;;;;;;;;;;;;5064062;28;21966;-70
2023/11/17 09:56:50;;;;;;;;;;;;;;;;;;5040213;28;19972;-70
2023/11/17 09:59:17;;;;;;;;;;;;;;;;;;5041143;28;19916;-72
2023/11/17 10:01:43;;;;;;;;;;;;;;;;;;5068975;28;19915;-71
2023/11/17 10:04:09;;;;;;;;;;;;;;;;;;5071646;28;19927;-71
2023/11/17 10:06:34;;;;;;;;;;;;;;;;;;5046529;28;19921;-72
2023/11/17 10:09:00;;;;;;;;;;;;;;;;;;5071446;28;20350;-72
2023/11/17 10:11:25;;;;;;;;;;;;;;;;;;5054579;28;19916;-72
2023/11/17 10:13:51;;;;;;;;;;;;;;;;;;5057574;28;19921;-72
2023/11/17 10:16:16;;;;;;;;;;;;;;;;;;5043729;28;19920;-72
2023/11/17 10:18:42;;;;;;;;;;;;;;;;;;5059108;28;19939;-73
2023/11/17 10:21:09;;;;;;;;;;;;;;;;;;5059085;28;20372;-73
2023/11/17 10:23:34;;;;;;;;;;;;;;;;;;5038937;28;19919;-73
2023/11/17 10:26:01;;;;;;;;;;;;;;;;;;5042578;28;19916;-72
2023/11/17 10:28:28;;;;;;;;;;;;;;;;;;5068484;28;20346;-72
2023/11/17 10:30:54;;;;;;;;;;;;;;;;;;5071102;28;19912;-74
2023/11/17 10:33:20;;;;;;;;;;;;;;;;;;5052330;28;19927;-72
2023/11/17 10:35:45;;;;;;;;;;;;;;;;;;5075014;28;20287;-74
2023/11/17 10:38:12;;;;;;;;;;;;;;;;;;5059088;28;19920;-74
2023/11/17 10:40:38;;;;;;;;;;;;;;;;;;5061526;28;19917;-74
2023/11/17 10:43:04;;;;;;;;;;;;;;;;;;5072330;28;20358;-74
2023/11/17 10:45:30;;;;;;;;;;;;;;;;;;5060975;28;19923;-73
2023/11/17 10:47:55;;;;;;;;;;;;;;;;;;5060331;28;19916;-74
2023/11/17 10:50:22;;;;;;;;;;;;;;;;;;5057524;28;19916;-74
2023/11/17 10:52:47;;;;;;;;;;;;;;;;;;5071289;28;19916;-75
2023/11/17 10:55:14;;;;;;;;;;;;;;;;;;5073224;28;20623;-74
2023/11/17 10:57:41;;;;;;;;;;;;;;;;;;5072294;28;19916;-74
2023/11/17 11:00:08;;;;;;;;;;;;;;;;;;5073495;28;19934;-76
2023/11/17 11:02:33;;;;;;;;;;;;;;;;;;5074030;28;20391;-74
2023/11/17 11:04:59;;;;;;;;;;;;;;;;;;5074403;28;20087;-75
2023/11/17 11:07:25;;;;;;;;;;;;;;;;;;5057149;28;20107;-77
2023/11/17 11:09:51;;;;;;;;;;;;;;;;;;5062999;28;19927;-76
2023/11/17 11:12:16;;;;;;;;;;;;;;;;;;5056581;28;19920;-75
2023/11/17 11:14:41;;;;;;;;;;;;;;;;;;5062238;28;19916;-77
2023/11/17 11:17:07;;;;;;;;;;;;;;;;;;5070784;28;19924;-76
2023/11/17 11:19:32;;;;;;;;;;;;;;;;;;5055270;28;20391;-75
2023/11/17 11:22:00;;;;;;;;;;;;;;;;;;5060431;28;20313;-76
2023/11/17 11:24:26;;;;;;;;;;;;;;;;;;5044639;28;19943;-77
2023/11/17 11:26:51;;;;;;;;;;;;;;;;;;5072280;28;20066;-76
2023/11/17 11:29:16;;;;;;;;;;;;;;;;;;5059422;28;19920;-75
2023/11/17 11:31:42;;;;;;;;;;;;;;;;;;5059911;28;19917;-75
2023/11/17 11:34:10;;;;;;;;;;;;;;;;;;5043815;28;19921;-75
2023/11/17 11:36:36;;;;;;;;;;;;;;;;;;5056926;28;19927;-76
2023/11/17 11:39:02;;;;;;;;;;;;;;;;;;5041732;28;19949;-77
2023/11/17 11:41:27;;;;;;;;;;;;;;;;;;5060564;28;19916;-74
2023/11/17 11:43:52;;;;;;;;;;;;;;;;;;5060433;28;19916;-76
2023/11/17 11:46:18;;;;;;;;;;;;;;;;;;5043520;28;20057;-76
2023/11/17 11:48:44;;;;;;;;;;;;;;;;;;5071958;28;19964;-76
2023/11/17 11:51:10;;;;;;;;;;;;;;;;;;5060477;28;20003;-75
2023/11/17 11:53:36;;;;;;;;;;;;;;;;;;5069313;28;19928;-77
2023/11/17 11:56:01;;;;;;;;;;;;;;;;;;5043425;28;19927;-75
2023/11/17 11:58:26;;;;;;;;;;;;;;;;;;5044571;28;19916;-76
2023/11/17 12:00:54;;;;;;;;;;;;;;;;;;5073033;28;20032;-76
2023/11/17 12:03:20;;;;;;;;;;;;;;;;;;5071308;28;20447;-77
2023/11/17 12:05:46;;;;;;;;;;;;;;;;;;5071913;28;19920;-76
2023/11/17 12:08:11;;;;;;;;;;;;;;;;;;5057749;28;19943;-76
2023/11/17 12:10:38;;;;;;;;;;;;;;;;;;5073302;28;19916;-75
2023/11/17 12:13:05;;;;;;;;;;;;;;;;;;5072004;28;20005;-75
2023/11/17 12:15:30;;;;;;;;;;;;;;;;;;5059367;28;20198;-76
2023/11/17 12:17:56;;;;;;;;;;;;;;;;;;5057350;28;19939;-77
2023/11/17 12:20:24;;;;;;;;;;;;;;;;;;5059921;28;19912;-76
2023/11/17 12:22:51;;;;;;;;;;;;;;;;;;5052854;28;19928;-77
2023/11/17 12:25:16;;;;;;;;;;;;;;;;;;5044816;28;19921;-76
2023/11/17 12:27:41;;;;;;;;;;;;;;;;;;5057586;28;19926;-74
2023/11/17 12:30:12;;;;;;;;;;;;;;;;;;5056187;28;19939;-75
2023/11/17 12:32:37;;;;;;;;;;;;;;;;;;5071213;28;19916;-75
2023/11/17 12:35:03;;;;;;;;;;;;;;;;;;5071332;28;19926;-76
2023/11/17 12:37:29;;;;;;;;;;;;;;;;;;5069793;28;20281;-74
2023/11/17 12:39:54;;;;;;;;;;;;;;;;;;5039801;28;19969;-76
2023/11/17 12:42:19;;;;;;;;;;;;;;;;;;5044016;28;19912;-75
2023/11/17 12:44:45;;;;;;;;;;;;;;;;;;5043231;28;19920;-76
2023/11/17 12:47:10;;;;;;;;;;;;;;;;;;5057825;28;19924;-76
2023/11/17 12:49:35;;;;;;;;;;;;;;;;;;5070222;28;20429;-75
2023/11/17 12:52:01;;;;;;;;;;;;;;;;;;5065398;28;19916;-78
2023/11/17 12:54:30;;;;;;;;;;;;;;;;;;5068913;28;19970;-77
2023/11/17 12:56:56;;;;;;;;;;;;;;;;;;5044988;28;19971;-77
2023/11/17 12:59:21;;;;;;;;;;;;;;;;;;5071987;28;20010;-75
2023/11/17 13:01:46;;;;;;;;;;;;;;;;;;5071221;28;19920;-76
2023/11/17 13:04:12;;;;;;;;;;;;;;;;;;5055845;28;20429;-77
2023/11/17 13:06:37;;;;;;;;;;;;;;;;;;5053296;28;20460;-76
2023/11/17 13:09:09;;;;;;;;;;;;;;;;;;5057134;28;20465;-74
2023/11/17 13:11:34;;;;;;;;;;;;;;;;;;5070910;28;19942;-77
2023/11/17 13:14:08;;;;;;;;;;;;;;;;;;5070060;28;19927;-79
2023/11/17 13:16:33;;;;;;;;;;;;;;;;;;5054924;28;20129;-77
2023/11/17 13:19:00;;;;;;;;;;;;;;;;;;5059434;28;19915;-78
2023/11/17 13:21:26;;;;;;;;;;;;;;;;;;5064344;28;19931;-78
2023/11/17 13:23:51;;;;;;;;;;;;;;;;;;5069969;28;20291;-77
2023/11/17 13:26:20;;;;;;;;;;;;;;;;;;5052855;28;20658;-77
2023/11/17 13:28:46;;;;;;;;;;;;;;;;;;5060132;28;20230;-77
2023/11/17 13:31:11;;;;;;;;;;;;;;;;;;5038751;28;20371;-77
2023/11/17 13:33:41;;;;;;;;;;;;;;;;;;5070473;28;20392;-76
2023/11/17 13:36:06;;;;;;;;;;;;;;;;;;5070757;28;19967;-75
2023/11/17 13:38:32;;;;;;;;;;;;;;;;;;5039829;28;20047;-76
2023/11/17 13:40:57;;;;;;;;;;;;;;;;;;5072085;28;19920;-77
2023/11/17 13:43:23;;;;;;;;;;;;;;;;;;5041176;28;20054;-76
2023/11/17 13:45:50;;;;;;;;;;;;;;;;;;5071226;28;19923;-76
2023/11/17 13:48:15;;;;;;;;;;;;;;;;;;5053706;28;19920;-76
2023/11/17 13:50:40;;;;;;;;;;;;;;;;;;5038995;28;20480;-75
2023/11/17 13:53:06;;;;;;;;;;;;;;;;;;5056106;28;20384;-75
2023/11/17 13:55:31;;;;;;;;;;;;;;;;;;5058597;28;19927;-76
2023/11/17 13:57:58;;;;;;;;;;;;;;;;;;5057994;28;19920;-76
2023/11/17 14:00:26;;;;;;;;;;;;;;;;;;5040423;28;19920;-77
2023/11/17 14:02:52;;;;;;;;;;;;;;;;;;5057564;28;20423;-76
2023/11/17 14:05:18;;;;;;;;;;;;;;;;;;5055350;28;19920;-77
2023/11/17 14:07:44;;;;;;;;;;;;;;;;;;5062813;28;19939;-76
2023/11/17 14:10:11;;;;;;;;;;;;;;;;;;5044070;28;19967;-76
2023/11/17 14:12:39;;;;;;;;;;;;;;;;;;5057529;28;20003;-75
2023/11/17 14:15:12;;;;;;;;;;;;;;;;;;5043504;28;19923;-77
2023/11/17 14:17:37;;;;;;;;;;;;;;;;;;5044596;28;19927;-77
2023/11/17 14:20:07;;;;;;;;;;;;;;;;;;5045328;28;19917;-78
2023/11/17 14:22:32;;;;;;;;;;;;;;;;;;5071646;28;20003;-76
2023/11/17 14:24:59;;;;;;;;;;;;;;;;;;5060283;28;19920;-76
2023/11/17 14:27:25;;;;;;;;;;;;;;;;;;5057891;28;20469;-77
2023/11/17 14:29:54;;;;;;;;;;;;;;;;;;5058823;28;19920;-77
2023/11/17 14:32:19;;;;;;;;;;;;;;;;;;5072212;28;19920;-77
2023/11/17 14:34:50;;;;;;;;;;;;;;;;;;5058048;28;20362;-77
2023/11/17 14:37:15;;;;;;;;;;;;;;;;;;5039865;28;20422;-77
2023/11/17 14:39:40;;;;;;;;;;;;;;;;;;5073719;28;19965;-75
2023/11/17 14:42:08;;;;;;;;;;;;;;;;;;5060561;28;20007;-75
2023/11/17 14:44:33;;;;;;;;;;;;;;;;;;5041449;28;19969;-76
2023/11/17 14:46:58;;;;;;;;;;;;;;;;;;5072252;28;19920;-78
2023/11/17 14:49:26;;;;;;;;;;;;;;;;;;5060445;28;21604;-75
2023/11/17 14:51:55;;;;;;;;;;;;;;;;;;5058546;28;19916;-75
2023/11/17 14:54:20;;;;;;;;;;;;;;;;;;5061635;28;19981;-75
2023/11/17 14:56:48;;;;;;;;;;;;;;;;;;5072817;28;20375;-76
2023/11/17 14:59:13;;;;;;;;;;;;;;;;;;5057915;28;19920;-75
2023/11/17 15:01:42;;;;;;;;;;;;;;;;;;5060549;28;20711;-76
2023/11/17 15:04:07;;;;;;;;;;;;;;;;;;5072423;28;19916;-75
2023/11/17 15:06:35;;;;;;;;;;;;;;;;;;5056704;28;19921;-75
2023/11/17 15:09:02;;;;;;;;;;;;;;;;;;5056137;28;19916;-75
2023/11/17 15:11:28;;;;;;;;;;;;;;;;;;5068165;28;19912;-76
2023/11/17 15:14:04;;;;;;;;;;;;;;;;;;5061520;28;19916;-75
2023/11/17 15:16:30;;;;;;;;;;;;;;;;;;5072238;28;19969;-76
2023/11/17 15:18:59;;;;;;;;;;;;;;;;;;5056338;28;19948;-76
2023/11/17 15:21:25;;;;;;;;;;;;;;;;;;5073899;28;19916;-76
2023/11/17 15:23:51;;;;;;;;;;;;;;;;;;5059967;28;19941;-76
2023/11/17 15:26:19;;;;;;;;;;;;;;;;;;5058259;28;19962;-76
2023/11/17 15:28:44;;;;;;;;;;;;;;;;;;5055547;28;19934;-76
2023/11/17 15:31:10;;;;;;;;;;;;;;;;;;5057729;28;21499;-76
2023/11/17 15:33:36;;;;;;;;;;;;;;;;;;5043604;28;20329;-76
2023/11/17 15:36:04;;;;;;;;;;;;;;;;;;5060488;28;20048;-76
2023/11/17 15:38:29;;;;;;;;;;;;;;;;;;5070253;28;20556;-76
2023/11/17 15:40:58;;;;;;;;;;;;;;;;;;5072852;28;19912;-76
2023/11/17 15:43:30;;;;;;;;;;;;;;;;;;5071509;28;20358;-76
2023/11/17 15:45:56;;;;;;;;;;;;;;;;;;5076506;28;20375;-76
2023/11/17 15:48:21;;;;;;;;;;;;;;;;;;5054903;28;19923;-76
2023/11/17 15:50:48;;;;;;;;;;;;;;;;;;5061426;28;19926;-76
2023/11/17 15:53:13;;;;;;;;;;;;;;;;;;5046469;27;20512;-76
2023/11/17 15:55:39;;;;;;;;;;;;;;;;;;5078505;27;20047;-76
2023/11/17 15:58:08;;;;;;;;;;;;;;;;;;5062274;27;19920;-76
2023/11/17 16:00:35;;;;;;;;;;;;;;;;;;5074800;27;19954;-76
2023/11/17 16:03:01;;;;;;;;;;;;;;;;;;5095707;27;19955;-76
2023/11/17 16:05:29;;;;;;;;;;;;;;;;;;5061145;27;20447;-76
2023/11/17 16:07:57;;;;;;;;;;;;;;;;;;5085416;28;20319;-76
2023/11/17 16:10:22;;;;;;;;;;;;;;;;;;5077355;27;20291;-76
2023/11/17 16:12:49;;;;;;;;;;;;;;;;;;5052929;27;19927;-76
2023/11/17 16:15:14;;;;;;;;;;;;;;;;;;5095565;27;19921;-77
2023/11/17 16:17:39;;;;;;;;;;;;;;;;;;5078111;27;19982;-76
2023/11/17 16:20:06;;;;;;;;;;;;;;;;;;5062365;27;19920;-76
2023/11/17 16:22:31;;;;;;;;;;;;;;;;;;5075100;27;19931;-77
2023/11/17 16:24:57;;;;;;;;;;;;;;;;;;5065447;27;19916;-75
2023/11/17 16:27:22;;;;;;;;;;;;;;;;;;5076210;27;20315;-75
2023/11/17 16:29:50;;;;;;;;;;;;;;;;;;5078507;27;19916;-75
2023/11/17 16:32:16;;;;;;;;;;;;;;;;;;5094537;27;20059;-77
2023/11/17 16:34:41;;;;;;;;;;;;;;;;;;5078167;28;20420;-75
2023/11/17 16:37:07;;;;;;;;;;;;;;;;;;5092810;27;19924;-75
2023/11/17 16:39:32;;;;;;;;;;;;;;;;;;5064596;27;19916;-75